createdAt,value
2018-05-18T00:02:19.872Z,15.70
2018-05-18T00:04:47.466Z,17.27
2018-05-18T00:07:15.082Z,15.47
2018-05-18T00:09:42.669Z,16.60
2018-05-18T00:12:10.234Z,15.87
2018-05-18T00:14:37.828Z,16.10
2018-05-18T00:17:06.160Z,16.87
2018-05-18T00:19:33.757Z,17.53
2018-05-18T00:22:01.354Z,16.13
2018-05-18T00:24:28.956Z,16.00
2018-05-18T00:26:56.524Z,16.33
2018-05-18T00:29:24.155Z,17.43
2018-05-18T00:31:51.730Z,18.77
2018-05-18T00:34:19.287Z,17.40
2018-05-18T00:36:46.901Z,17.70
2018-05-18T00:39:14.468Z,17.37
2018-05-18T00:41:42.116Z,19.43
2018-05-18T00:44:10.503Z,19.07
2018-05-18T00:46:38.144Z,18.67
2018-05-18T00:49:05.754Z,19.67
2018-05-18T00:51:33.312Z,19.30
2018-05-18T00:54:00.911Z,18.60
2018-05-18T00:56:28.468Z,20.37
2018-05-18T00:58:56.050Z,19.70
2018-05-18T01:01:23.870Z,21.50
2018-05-18T01:03:52.188Z,19.77
2018-05-18T01:06:19.788Z,18.83
2018-05-18T01:08:47.385Z,19.53
2018-05-18T01:11:14.943Z,21.80
2018-05-18T01:13:42.545Z,19.53
2018-05-18T01:16:10.110Z,20.17
2018-05-18T01:18:38.471Z,20.97
2018-05-18T01:21:06.041Z,19.90
2018-05-18T01:23:34.420Z,22.77
2018-05-18T01:26:02.136Z,19.90
2018-05-18T01:28:29.732Z,20.83
2018-05-18T01:30:57.331Z,22.90
2018-05-18T01:33:24.941Z,22.83
2018-05-18T01:35:52.500Z,22.40
2018-05-18T01:38:20.112Z,21.27
2018-05-18T01:40:47.672Z,23.33
2018-05-18T01:43:15.232Z,21.20
2018-05-18T01:45:43.592Z,21.97
2018-05-18T01:48:11.921Z,19.50
2018-05-18T01:50:39.578Z,18.53
2018-05-18T01:53:07.160Z,18.37
2018-05-18T01:55:34.768Z,19.83
2018-05-18T01:58:02.352Z,21.87
2018-05-18T02:00:29.927Z,20.27
2018-05-18T02:02:57.520Z,17.00
2018-05-18T02:05:25.165Z,15.50
2018-05-18T02:07:52.732Z,17.13
2018-05-18T02:10:20.344Z,18.07
2018-05-18T02:12:47.946Z,18.47
2018-05-18T02:15:15.509Z,18.53
2018-05-18T02:17:43.107Z,17.70
2018-05-18T02:20:10.693Z,17.53
2018-05-18T02:22:38.304Z,20.43
2018-05-18T02:25:05.873Z,17.73
2018-05-18T02:27:33.438Z,19.33
2018-05-18T02:30:01.037Z,18.50
2018-05-18T02:32:28.609Z,18.10
2018-05-18T02:34:56.213Z,18.13
2018-05-18T02:37:23.857Z,19.40
2018-05-18T02:39:51.456Z,19.80
2018-05-18T02:42:19.020Z,16.80
2018-05-18T02:44:47.452Z,18.13
2018-05-18T02:47:15.016Z,17.33
2018-05-18T02:49:42.640Z,18.53
2018-05-18T02:52:10.195Z,17.47
2018-05-18T02:54:38.653Z,16.47
2018-05-18T02:57:06.252Z,19.03
2018-05-18T02:59:33.809Z,18.07
2018-05-18T03:02:01.424Z,17.73
2018-05-18T03:04:28.992Z,16.17
2018-05-18T03:06:56.554Z,16.37
2018-05-18T03:09:24.153Z,15.73
2018-05-18T03:11:51.756Z,15.90
2018-05-18T03:14:19.322Z,18.03
2018-05-18T03:16:46.924Z,16.03
2018-05-18T03:19:15.249Z,18.27
2018-05-18T03:21:42.840Z,16.37
2018-05-18T03:24:10.463Z,16.30
2018-05-18T03:26:38.073Z,16.20
2018-05-18T03:29:06.404Z,16.03
2018-05-18T03:31:33.961Z,15.10
2018-05-18T03:34:01.604Z,16.13
2018-05-18T03:36:29.170Z,16.83
2018-05-18T03:38:56.765Z,17.73
2018-05-18T03:41:24.336Z,17.47
2018-05-18T03:43:51.962Z,17.83
2018-05-18T03:46:19.527Z,16.00
2018-05-18T03:48:47.141Z,17.90
2018-05-18T03:51:15.532Z,16.10
2018-05-18T03:53:43.892Z,18.60
2018-05-18T03:56:11.498Z,16.73
2018-05-18T03:58:39.062Z,18.87
2018-05-18T04:01:06.663Z,17.63
2018-05-18T04:03:45.953Z,16.83
2018-05-18T04:06:25.315Z,18.50
2018-05-18T04:08:52.878Z,17.37
2018-05-18T04:11:20.479Z,17.17
2018-05-18T04:13:48.802Z,18.47
2018-05-18T04:16:16.412Z,18.43
2018-05-18T04:18:43.980Z,19.93
2018-05-18T04:21:11.584Z,20.93
2018-05-18T04:23:39.153Z,20.20
2018-05-18T04:26:06.755Z,20.90
2018-05-18T04:28:35.086Z,20.03
2018-05-18T04:31:02.742Z,20.33
2018-05-18T04:33:30.299Z,21.33
2018-05-18T04:35:57.856Z,22.03
2018-05-18T04:38:25.458Z,18.47
2018-05-18T04:40:53.036Z,19.10
2018-05-18T04:43:21.502Z,20.60
2018-05-18T04:45:49.800Z,20.53
2018-05-18T04:48:18.142Z,20.90
2018-05-18T04:50:45.710Z,17.30
2018-05-18T04:53:13.317Z,18.00
2018-05-18T04:55:40.918Z,20.37
2018-05-18T04:58:08.483Z,21.20
2018-05-18T05:00:36.094Z,22.03
2018-05-18T05:03:04.428Z,23.97
2018-05-18T05:05:32.044Z,23.20
2018-05-18T05:07:59.624Z,22.63
2018-05-18T05:10:27.260Z,21.57
2018-05-18T05:12:54.845Z,23.93
2018-05-18T05:15:22.407Z,22.67
2018-05-18T05:17:50.025Z,23.90
2018-05-18T05:20:17.609Z,22.83
2018-05-18T05:22:45.968Z,22.20
2018-05-18T05:25:14.297Z,22.60
2018-05-18T05:27:41.904Z,21.40
2018-05-18T05:30:09.473Z,20.80
2018-05-18T05:32:37.044Z,22.30
2018-05-18T05:35:05.407Z,22.33
2018-05-18T05:37:33.776Z,20.90
2018-05-18T05:40:01.389Z,21.77
2018-05-18T05:42:28.947Z,21.83
2018-05-18T05:44:56.540Z,23.63
2018-05-18T05:47:24.103Z,24.10
2018-05-18T05:49:51.700Z,24.77
2018-05-18T05:52:20.036Z,26.07
2018-05-18T05:54:47.647Z,24.33
2018-05-18T05:57:15.250Z,27.77
2018-05-18T05:59:42.845Z,25.03
2018-05-18T06:02:10.462Z,25.30
2018-05-18T06:04:38.028Z,24.63
2018-05-18T06:07:05.598Z,21.67
2018-05-18T06:09:33.203Z,24.30
2018-05-18T06:12:01.541Z,24.43
2018-05-18T06:14:29.148Z,23.97
2018-05-18T06:16:56.721Z,24.10
2018-05-18T06:19:24.418Z,23.17
2018-05-18T06:21:51.973Z,22.97
2018-05-18T06:24:19.546Z,20.43
2018-05-18T06:26:47.195Z,20.63
2018-05-18T06:29:14.804Z,22.83
2018-05-18T06:31:42.383Z,22.17
2018-05-18T06:34:09.993Z,22.93
2018-05-18T06:36:37.622Z,26.07
2018-05-18T06:39:06.974Z,21.17
2018-05-18T06:41:34.583Z,21.37
2018-05-18T06:44:02.152Z,22.33
2018-05-18T06:46:29.760Z,20.40
2018-05-18T06:48:57.329Z,20.10
2018-05-18T06:51:24.905Z,20.17
2018-05-18T06:53:53.298Z,21.30
2018-05-18T06:56:20.920Z,17.67
2018-05-18T06:58:48.555Z,16.07
2018-05-18T07:01:16.928Z,17.17
2018-05-18T07:03:44.538Z,16.37
2018-05-18T07:06:12.108Z,16.07
2018-05-18T07:08:40.482Z,18.07
2018-05-18T07:11:08.810Z,15.17
2018-05-18T07:13:36.417Z,15.67
2018-05-18T07:16:04.041Z,15.17
2018-05-18T07:18:31.616Z,17.80
2018-05-18T07:20:59.212Z,14.40
2018-05-18T07:23:27.555Z,14.77
2018-05-18T07:25:55.227Z,14.80
2018-05-18T07:28:24.603Z,14.47
2018-05-18T07:30:52.214Z,14.97
2018-05-18T07:33:20.548Z,14.90
2018-05-18T07:35:48.201Z,15.07
2018-05-18T07:38:15.798Z,12.67
2018-05-18T07:40:43.368Z,15.33
2018-05-18T07:43:10.989Z,14.20
2018-05-18T07:45:38.577Z,14.67
2018-05-18T07:48:06.189Z,13.93
2018-05-18T07:50:33.764Z,14.37
2018-05-18T07:53:01.369Z,17.33
2018-05-18T07:55:29.961Z,17.60
2018-05-18T07:57:57.532Z,14.80
2018-05-18T08:00:25.884Z,15.67
2018-05-18T08:02:53.518Z,19.73
2018-05-18T08:05:21.094Z,20.83
2018-05-18T08:07:48.710Z,22.60
2018-05-18T08:10:17.065Z,24.50
2018-05-18T08:12:45.400Z,26.57
2018-05-18T08:15:13.028Z,26.90
2018-05-18T08:17:40.633Z,27.67
2018-05-18T08:20:08.216Z,29.43
2018-05-18T08:22:35.830Z,29.03
2018-05-18T08:25:03.458Z,28.70
2018-05-18T08:27:31.110Z,28.87
2018-05-18T08:29:58.679Z,31.97
2018-05-18T08:32:26.378Z,33.47
2018-05-18T08:34:53.965Z,32.73
2018-05-18T08:37:21.562Z,33.33
2018-05-18T08:39:49.950Z,30.90
2018-05-18T08:42:18.349Z,34.03
2018-05-18T08:44:45.923Z,32.23
2018-05-18T08:47:13.509Z,37.10
2018-05-18T08:49:41.127Z,35.77
2018-05-18T08:52:08.701Z,32.87
2018-05-18T08:54:36.300Z,35.07
2018-05-18T08:57:03.929Z,31.63
2018-05-18T08:59:31.552Z,34.10
2018-05-18T09:01:59.923Z,33.63
2018-05-18T09:04:27.537Z,33.80
2018-05-18T09:06:55.119Z,35.00
2018-05-18T09:09:22.733Z,33.20
2018-05-18T09:11:50.344Z,31.13
2018-05-18T09:14:17.913Z,30.80
2018-05-18T09:16:45.525Z,27.30
2018-05-18T09:19:13.113Z,29.00
2018-05-18T09:21:40.720Z,30.27
2018-05-18T09:24:09.154Z,33.43
2018-05-18T09:26:36.778Z,34.17
2018-05-18T09:29:04.351Z,33.83
2018-05-18T09:31:31.957Z,36.77
2018-05-18T09:33:59.544Z,32.27
2018-05-18T09:36:27.978Z,34.20
2018-05-18T09:38:55.565Z,36.67
2018-05-18T09:41:23.166Z,34.87
2018-05-18T09:43:50.790Z,38.83
2018-05-18T09:46:18.361Z,34.77
2018-05-18T09:48:45.974Z,38.33
2018-05-18T09:51:13.577Z,39.00
2018-05-18T09:53:41.186Z,39.20
2018-05-18T09:56:08.757Z,39.40
2018-05-18T09:58:36.362Z,38.57
2018-05-18T10:01:04.748Z,37.50
2018-05-18T10:03:32.321Z,39.60
2018-05-18T10:05:59.953Z,41.57
2018-05-18T10:08:27.527Z,38.97
2018-05-18T10:10:55.151Z,37.80
2018-05-18T10:13:22.722Z,35.47
2018-05-18T10:15:50.288Z,35.33
2018-05-18T10:18:17.905Z,29.03
2018-05-18T10:20:45.477Z,30.23
2018-05-18T10:23:13.089Z,36.93
2018-05-18T10:25:40.664Z,37.57
2018-05-18T10:28:08.278Z,35.83
2018-05-18T10:30:35.852Z,43.67
2018-05-18T10:33:03.469Z,38.60
2018-05-18T10:35:31.041Z,33.60
2018-05-18T10:37:58.654Z,35.43
2018-05-18T10:40:26.219Z,35.87
2018-05-18T10:42:53.815Z,38.57
2018-05-18T10:45:21.439Z,41.93
2018-05-18T10:47:49.021Z,42.40
2018-05-18T10:50:17.400Z,43.07
2018-05-18T10:52:45.930Z,43.00
2018-05-18T10:55:13.516Z,42.13
2018-05-18T10:57:41.099Z,42.53
2018-05-18T11:00:09.485Z,44.33
2018-05-18T11:02:37.861Z,44.33
2018-05-18T11:05:06.205Z,45.33
2018-05-18T11:07:33.835Z,43.60
2018-05-18T11:12:35.353Z,50.10
2018-05-18T11:15:02.973Z,51.63
2018-05-18T11:17:30.558Z,51.60
2018-05-18T11:19:58.180Z,51.33
2018-05-18T11:22:25.812Z,48.50
2018-05-18T11:24:53.376Z,49.57
2018-05-18T11:27:20.990Z,47.43
2018-05-18T11:29:48.566Z,49.73
2018-05-18T11:32:16.141Z,47.77
2018-05-18T11:34:43.761Z,48.60
2018-05-18T11:37:11.344Z,52.77
2018-05-18T11:39:38.953Z,54.70
2018-05-18T11:42:07.302Z,51.80
2018-05-18T11:44:34.923Z,51.43
2018-05-18T11:47:02.502Z,51.33
2018-05-18T11:49:30.074Z,46.77
2018-05-18T11:51:57.680Z,50.50
2018-05-18T11:54:25.292Z,52.00
2018-05-18T11:56:52.933Z,50.20
2018-05-18T11:59:20.520Z,51.00
2018-05-18T12:01:48.140Z,57.53
2018-05-18T12:04:15.748Z,59.20
2018-05-18T12:06:43.331Z,63.53
2018-05-18T12:09:10.942Z,68.90
2018-05-18T12:11:38.554Z,64.63
2018-05-18T12:14:06.174Z,86.83
2018-05-18T12:16:33.757Z,93.10
2018-05-18T12:19:01.334Z,94.63
2018-05-18T12:21:31.735Z,83.73
2018-05-18T12:23:59.347Z,74.20
2018-05-18T12:26:27.680Z,75.30
2018-05-18T12:28:55.254Z,77.63
2018-05-18T12:31:22.869Z,80.60
2018-05-18T12:33:50.485Z,82.97
2018-05-18T12:36:18.210Z,86.60
2018-05-18T12:38:45.829Z,81.47
2018-05-18T12:41:13.409Z,82.57
2018-05-18T12:43:40.989Z,83.47
2018-05-18T12:46:08.658Z,86.07
2018-05-18T12:48:36.316Z,96.03
2018-05-18T12:51:03.927Z,89.33
2018-05-18T12:53:31.498Z,87.70
2018-05-18T12:55:59.876Z,93.60
2018-05-18T12:58:28.220Z,95.30
2018-05-18T13:00:55.844Z,93.53
2018-05-18T13:03:23.431Z,91.10
2018-05-18T13:05:50.999Z,93.30
2018-05-18T13:08:18.628Z,92.73
2018-05-18T13:10:46.233Z,94.90
2018-05-18T13:13:13.798Z,91.33
2018-05-18T13:15:41.411Z,94.57
2018-05-18T13:18:09.025Z,95.73
2018-05-18T13:20:36.602Z,99.50
2018-05-18T13:23:04.989Z,98.47
2018-05-18T13:25:32.603Z,96.87
2018-05-18T13:28:00.179Z,101.90
2018-05-18T13:30:27.908Z,96.47
2018-05-18T13:32:56.117Z,99.10
2018-05-18T13:35:23.740Z,102.07
2018-05-18T13:37:51.362Z,102.00
2018-05-18T13:40:19.785Z,109.07
2018-05-18T13:42:47.390Z,112.27
2018-05-18T13:45:15.005Z,114.03
2018-05-18T13:47:42.615Z,111.77
2018-05-18T13:50:10.188Z,111.17
2018-05-18T13:52:38.616Z,116.33
2018-05-18T13:55:06.218Z,126.17
2018-05-18T13:57:33.835Z,128.00
2018-05-18T14:00:01.417Z,124.50
2018-05-18T14:02:29.027Z,122.33
2018-05-18T14:04:57.373Z,123.47
2018-05-18T14:07:25.011Z,129.70
2018-05-18T14:09:52.630Z,126.50
2018-05-18T14:12:20.983Z,127.50
2018-05-18T14:14:48.605Z,124.93
2018-05-18T14:17:16.623Z,122.33
2018-05-18T14:19:44.404Z,119.30
2018-05-18T14:22:11.981Z,119.17
2018-05-18T14:24:39.846Z,122.33
2018-05-18T14:27:07.435Z,122.03
2018-05-18T14:29:35.044Z,121.80
2018-05-18T14:32:03.428Z,121.63
2018-05-18T14:34:31.768Z,121.33
2018-05-18T14:36:59.448Z,120.80
2018-05-18T14:39:27.027Z,117.57
2018-05-18T14:41:55.410Z,112.97
2018-05-18T14:44:23.758Z,114.30
2018-05-18T14:46:51.440Z,117.03
2018-05-18T14:49:19.029Z,117.20
2018-05-18T14:51:46.664Z,122.50
2018-05-18T14:54:14.278Z,124.37
2018-05-18T14:56:41.861Z,125.20
2018-05-18T14:59:09.479Z,115.87
2018-05-18T15:01:37.064Z,115.37
2018-05-18T15:04:04.677Z,113.40
2018-05-18T15:06:33.021Z,115.53
2018-05-18T15:09:00.640Z,121.50
2018-05-18T15:11:28.222Z,125.00
2018-05-18T15:13:55.940Z,135.73
2018-05-18T15:16:23.546Z,124.50
2018-05-18T15:18:52.821Z,115.83
2018-05-18T15:21:21.195Z,102.80
2018-05-18T15:23:49.533Z,86.87
2018-05-18T15:26:17.141Z,83.63
2018-05-18T15:28:45.244Z,79.70
2018-05-18T15:31:13.674Z,85.43
2018-05-18T15:33:42.059Z,84.70
2018-05-18T15:36:10.404Z,91.57
2018-05-18T15:38:38.023Z,105.43
2018-05-18T15:41:05.606Z,104.60
2018-05-18T15:43:33.216Z,109.17
2018-05-18T15:46:00.822Z,92.67
2018-05-18T15:48:29.085Z,109.43
2018-05-18T15:50:56.878Z,108.17
2018-05-18T15:53:24.572Z,111.33
2018-05-18T15:55:52.334Z,108.83
2018-05-18T15:58:20.216Z,123.13
2018-05-18T16:00:47.861Z,125.93
2018-05-18T16:03:15.545Z,130.17
2018-05-18T16:05:43.935Z,124.17
2018-05-18T16:08:12.489Z,125.37
2018-05-18T16:10:40.429Z,131.03
2018-05-18T16:13:09.250Z,133.90
2018-05-18T16:15:37.305Z,140.40
2018-05-18T16:18:07.288Z,146.77
2018-05-18T16:20:35.445Z,159.67
2018-05-18T16:23:03.657Z,163.87
2018-05-18T16:25:31.943Z,170.37
2018-05-18T16:27:59.744Z,172.17
2018-05-18T16:30:27.492Z,172.70
2018-05-18T16:32:55.779Z,165.53
2018-05-18T16:35:24.615Z,167.40
2018-05-18T16:37:52.338Z,165.70
2018-05-18T16:40:21.036Z,164.57
2018-05-18T16:42:48.817Z,162.87
2018-05-18T16:45:16.526Z,165.80
2018-05-18T16:47:44.207Z,156.23
2018-05-18T16:50:13.243Z,161.30
2018-05-18T16:52:40.906Z,160.53
2018-05-18T16:55:08.643Z,160.60
2018-05-18T16:57:36.825Z,157.63
2018-05-18T17:00:04.437Z,151.20
2018-05-18T17:02:32.097Z,153.63
2018-05-18T17:05:00.273Z,159.30
2018-05-18T17:07:28.247Z,158.50
2018-05-18T17:09:57.109Z,147.20
2018-05-18T17:12:25.308Z,147.10
2018-05-18T17:14:55.346Z,146.97
2018-05-18T17:17:22.969Z,147.63
2018-05-18T17:19:50.602Z,154.07
2018-05-18T17:22:18.963Z,149.67
2018-05-18T17:24:46.572Z,140.37
2018-05-18T17:27:14.157Z,134.70
2018-05-18T17:29:41.771Z,132.83
2018-05-18T17:32:10.111Z,132.80
2018-05-18T17:34:37.761Z,143.33
2018-05-18T17:37:05.339Z,133.13
2018-05-18T17:39:32.917Z,122.30
2018-05-18T17:42:00.536Z,112.77
2018-05-18T17:44:28.302Z,111.47
2018-05-18T17:46:58.581Z,108.00
2018-05-18T17:49:28.223Z,108.93
2018-05-18T17:51:57.014Z,105.33
2018-05-18T17:54:24.985Z,107.77
2018-05-18T17:56:56.046Z,100.30
2018-05-18T17:59:23.693Z,101.17
2018-05-18T18:01:51.339Z,93.43
2018-05-18T18:04:19.046Z,90.13
2018-05-18T18:06:46.716Z,86.23
2018-05-18T18:09:14.320Z,87.37
2018-05-18T18:11:41.940Z,84.80
2018-05-18T18:14:09.574Z,85.43
2018-05-18T18:16:37.150Z,82.30
2018-05-18T18:19:04.728Z,81.40
2018-05-18T18:21:32.341Z,73.27
2018-05-18T18:23:59.921Z,71.17
2018-05-18T18:26:27.532Z,73.97
2018-05-18T18:28:55.909Z,68.40
2018-05-18T18:31:25.989Z,64.83
2018-05-18T18:33:56.607Z,65.83
2018-05-18T18:36:25.004Z,67.70
2018-05-18T18:38:54.004Z,66.17
2018-05-18T18:41:21.568Z,68.60
2018-05-18T18:43:49.133Z,69.07
2018-05-18T18:46:18.293Z,68.07
2018-05-18T18:48:45.947Z,88.77
2018-05-18T18:51:13.498Z,71.53
2018-05-18T18:53:41.065Z,71.40
2018-05-18T18:56:08.713Z,66.40
2018-05-18T18:58:37.043Z,73.20
2018-05-18T19:01:04.659Z,74.00
2018-05-18T19:03:32.232Z,82.70
2018-05-18T19:06:05.553Z,83.53
2018-05-18T19:08:33.150Z,78.90
2018-05-18T19:11:00.774Z,82.07
2018-05-18T19:13:28.383Z,75.27
2018-05-18T19:15:55.953Z,87.13
2018-05-18T19:18:23.553Z,81.27
2018-05-18T19:20:51.137Z,77.17
2018-05-18T19:23:18.747Z,78.10
2018-05-18T19:25:46.316Z,75.00
2018-05-18T19:28:13.925Z,78.90
2018-05-18T19:30:41.503Z,77.17
2018-05-18T19:33:09.117Z,73.27
2018-05-18T19:35:36.723Z,74.00
2018-05-18T19:38:04.294Z,75.63
2018-05-18T19:40:32.668Z,74.80
2018-05-18T19:43:00.237Z,75.73
2018-05-18T19:45:28.609Z,75.80
2018-05-18T19:47:56.970Z,75.80
2018-05-18T19:50:24.577Z,74.73
2018-05-18T19:52:52.149Z,78.73
2018-05-18T19:55:19.763Z,79.63
2018-05-18T19:57:47.393Z,77.00
2018-05-18T20:00:14.962Z,83.40
2018-05-18T20:02:42.611Z,75.77
2018-05-18T20:05:10.186Z,75.30
2018-05-18T20:07:37.841Z,78.40
2018-05-18T20:10:05.457Z,73.87
2018-05-18T20:12:33.024Z,78.30
2018-05-18T20:15:00.638Z,88.73
2018-05-18T20:17:28.208Z,88.60
2018-05-18T20:19:55.834Z,87.20
2018-05-18T20:22:23.415Z,82.67
2018-05-18T20:24:50.980Z,89.47
2018-05-18T20:27:18.592Z,82.67
2018-05-18T20:29:46.197Z,82.80
2018-05-18T20:32:13.804Z,79.20
2018-05-18T20:34:41.373Z,80.60
2018-05-18T20:37:08.980Z,83.27
2018-05-18T20:39:36.557Z,79.13
2018-05-18T20:42:04.164Z,79.27
2018-05-18T20:44:31.745Z,73.87
2018-05-18T20:46:59.363Z,76.90
2018-05-18T20:49:27.741Z,79.10
2018-05-18T20:51:56.072Z,71.63
2018-05-18T20:54:23.672Z,70.30
2018-05-18T20:56:51.288Z,70.80
2018-05-18T20:59:19.002Z,69.27
2018-05-18T21:01:46.946Z,67.87
2018-05-18T21:04:15.273Z,63.87
2018-05-18T21:06:43.932Z,63.23
2018-05-18T21:09:11.496Z,60.77
2018-05-18T21:11:39.417Z,72.73
2018-05-18T21:14:08.619Z,82.40
2018-05-18T21:16:36.300Z,52.57
2018-05-18T21:19:03.907Z,40.67
2018-05-18T21:21:32.572Z,44.27
2018-05-18T21:24:00.281Z,55.00
2018-05-18T21:26:28.448Z,58.20
2018-05-18T21:28:57.768Z,63.13
2018-05-18T21:31:26.721Z,70.43
2018-05-18T21:33:55.398Z,67.63
2018-05-18T21:36:25.268Z,55.60
2018-05-18T21:38:52.837Z,48.23
2018-05-18T21:41:21.901Z,44.83
2018-05-18T21:43:49.660Z,38.00
2018-05-18T21:46:17.567Z,35.40
2018-05-18T21:48:45.390Z,30.40
2018-05-18T21:51:13.067Z,30.80
2018-05-18T21:53:41.622Z,26.07
2018-05-18T21:56:09.270Z,24.70
2018-05-18T21:58:37.294Z,22.57
2018-05-18T22:01:04.908Z,18.77
2018-05-18T22:03:32.484Z,17.93
2018-05-18T22:06:00.101Z,19.20
2018-05-18T22:08:27.808Z,19.20
2018-05-18T22:10:55.446Z,21.70
2018-05-18T22:13:23.023Z,17.23
2018-05-18T22:15:51.361Z,19.50
2018-05-18T22:18:18.968Z,18.97
2018-05-18T22:20:47.021Z,18.67
2018-05-18T22:23:15.051Z,27.13
2018-05-18T22:25:42.727Z,32.53
2018-05-18T22:28:11.050Z,30.00
2018-05-18T22:30:38.671Z,26.10
2018-05-18T22:33:06.298Z,20.13
2018-05-18T22:35:33.872Z,16.23
2018-05-18T22:38:01.644Z,17.73
2018-05-18T22:40:29.580Z,18.13
2018-05-18T22:42:57.359Z,18.93
2018-05-18T22:45:25.001Z,17.27
2018-05-18T22:47:52.583Z,21.47
2018-05-18T22:50:24.169Z,28.43
2018-05-18T22:52:51.787Z,28.03
2018-05-18T22:55:19.401Z,29.00
2018-05-18T22:57:46.973Z,25.63
2018-05-18T23:00:29.327Z,20.10
2018-05-18T23:02:56.945Z,19.77
2018-05-18T23:05:24.580Z,23.90
2018-05-18T23:07:52.165Z,20.73
2018-05-18T23:10:19.745Z,26.53
2018-05-18T23:12:48.129Z,60.70
2018-05-18T23:15:16.516Z,88.43
2018-05-18T23:17:44.091Z,90.40
2018-05-18T23:20:11.667Z,61.93
2018-05-18T23:22:39.281Z,28.93
2018-05-18T23:25:06.852Z,22.70
2018-05-18T23:27:35.224Z,39.43
2018-05-18T23:30:02.807Z,53.93
2018-05-18T23:32:30.418Z,60.10
2018-05-18T23:34:57.989Z,51.80
2018-05-18T23:37:25.588Z,55.17
2018-05-18T23:39:53.738Z,42.13
2018-05-18T23:42:21.374Z,21.37
2018-05-18T23:44:48.945Z,21.30
2018-05-18T23:47:16.558Z,22.37
2018-05-18T23:49:44.133Z,21.20
2018-05-18T23:52:11.744Z,22.60
2018-05-18T23:54:40.111Z,19.20
2018-05-18T23:57:07.683Z,19.43
2018-05-18T23:59:35.301Z,21.70
